Time;durP1;ratioP1;P1;durP2;ratioP2;P2;SDS_P1;SDS_P2;PMS_P1;PMS_P2;Temp;Humidity;BMP_temperature;BMP_pressure;BME280_temperature;BME280_humidity;BME280_pressure;Samples;Min_cycle;Max_cycle;Signal;HPM_P1;HPM_P2
2024/02/11 00:00:59;;;;;;;9.60;3.60;;;;;;;7.93;88.31;94636.38;108773;1272;22532;-72
2024/02/11 00:03:50;;;;;;;9.00;3.50;;;;;;;7.92;88.55;94632.80;108843;1272;24266;-72
2024/02/11 00:06:21;;;;;;;7.60;3.60;;;;;;;7.96;88.79;94634.27;108845;1272;22542;-72
2024/02/11 00:08:52;;;;;;;9.90;3.60;;;;;;;8.01;88.84;94632.20;108763;1272;25342;-72
2024/02/11 00:11:24;;;;;;;11.90;3.80;;;;;;;8.04;88.98;94631.61;108854;1272;22528;-73
2024/02/11 00:13:56;;;;;;;12.10;4.50;;;;;;;8.08;88.84;94630.55;108800;1266;23096;-72
2024/02/11 00:16:27;;;;;;;12.10;4.10;;;;;;;8.09;88.54;94626.81;108824;1267;22524;-72
2024/02/11 00:18:58;;;;;;;12.80;4.60;;;;;;;8.09;88.37;94625.95;108803;1271;25245;-72
2024/02/11 00:21:29;;;;;;;12.60;4.50;;;;;;;8.15;88.11;94624.89;108769;1272;22642;-72
2024/02/11 00:24:00;;;;;;;11.00;4.70;;;;;;;8.21;87.98;94625.11;108816;1271;22522;-72
2024/02/11 00:26:33;;;;;;;10.80;4.40;;;;;;;8.24;87.81;94627.19;108842;1272;22617;-72
2024/02/11 00:29:09;;;;;;;8.90;4.00;;;;;;;8.19;87.67;94630.08;108823;1269;22530;-72
2024/02/11 00:31:40;;;;;;;7.70;3.50;;;;;;;8.07;87.64;94626.17;108791;1267;22521;-72
2024/02/11 00:34:11;;;;;;;9.10;3.10;;;;;;;7.98;88.01;94626.59;108781;1271;22870;-73
2024/02/11 00:36:42;;;;;;;8.50;3.10;;;;;;;7.96;88.25;94629.77;108797;1266;24478;-72
2024/02/11 00:39:13;;;;;;;7.40;3.50;;;;;;;7.89;88.33;94626.41;108790;1272;24268;-72
2024/02/11 00:41:45;;;;;;;8.40;2.80;;;;;;;7.75;88.36;94626.48;108762;1272;25929;-72
2024/02/11 00:44:17;;;;;;;9.60;2.90;;;;;;;7.67;88.72;94623.70;108858;1272;23056;-72
2024/02/11 00:46:48;;;;;;;7.20;3.00;;;;;;;7.65;89.27;94620.08;108811;1272;22605;-72
2024/02/11 00:49:19;;;;;;;10.50;3.90;;;;;;;7.70;89.56;94620.29;108811;1269;22524;-72
2024/02/11 00:51:50;;;;;;;7.40;3.20;;;;;;;7.81;89.75;94619.94;108731;1272;23759;-72
2024/02/11 00:54:20;;;;;;;11.40;4.10;;;;;;;7.89;89.97;94615.70;108798;1272;22525;-72
2024/02/11 00:56:55;;;;;;;9.60;3.80;;;;;;;7.94;89.96;94611.55;108757;1272;22521;-72
2024/02/11 00:59:26;;;;;;;9.00;3.60;;;;;;;8.00;90.03;94611.54;108797;1271;24219;-72
2024/02/11 01:01:57;;;;;;;11.10;4.10;;;;;;;8.08;89.94;94608.04;108794;1272;25396;-72
2024/02/11 01:04:28;;;;;;;11.90;4.40;;;;;;;8.12;89.73;94607.35;108762;1272;24241;-72
2024/02/11 01:06:59;;;;;;;8.50;3.70;;;;;;;7.90;89.15;94604.74;108769;1272;22630;-72
2024/02/11 01:09:30;;;;;;;7.00;3.40;;;;;;;7.71;89.30;94603.82;108812;1266;24323;-71
2024/02/11 01:12:01;;;;;;;8.90;3.60;;;;;;;7.62;89.85;94603.73;108769;1272;22555;-72
2024/02/11 01:14:32;;;;;;;11.20;3.90;;;;;;;7.58;89.93;94598.28;108792;1271;25423;-72
2024/02/11 01:17:04;;;;;;;7.60;3.70;;;;;;;7.52;90.07;94591.61;108824;1272;22570;-73
2024/02/11 01:19:35;;;;;;;8.70;3.40;;;;;;;7.56;90.56;94593.19;108812;1269;22528;-72
2024/02/11 01:22:06;;;;;;;9.50;3.00;;;;;;;7.62;90.95;94592.44;108810;1272;23238;-72
2024/02/11 01:24:37;;;;;;;8.30;3.00;;;;;;;7.65;91.39;94589.27;108830;1269;22536;-72
2024/02/11 01:27:09;;;;;;;10.80;3.70;;;;;;;7.71;91.31;94591.62;108767;1269;22511;-72
2024/02/11 01:29:40;;;;;;;11.10;3.70;;;;;;;7.68;91.19;94592.34;108796;1264;22525;-72
2024/02/11 01:32:11;;;;;;;9.60;3.70;;;;;;;7.61;91.41;94591.50;108786;1272;22582;-72
2024/02/11 01:34:42;;;;;;;7.60;3.20;;;;;;;7.56;91.70;94591.77;108835;1272;24155;-72
2024/02/11 01:37:13;;;;;;;7.20;3.00;;;;;;;7.53;92.01;94593.07;108771;1269;22599;-72
2024/02/11 01:39:44;;;;;;;8.70;3.20;;;;;;;7.53;92.44;94592.38;108829;1269;22517;-72
2024/02/11 01:42:15;;;;;;;12.20;4.10;;;;;;;7.56;92.72;94592.14;108760;1272;22518;-72
2024/02/11 01:44:45;;;;;;;9.50;3.60;;;;;;;7.61;93.06;94592.09;108777;1272;25262;-72
2024/02/11 01:47:17;;;;;;;8.30;3.30;;;;;;;7.60;93.01;94592.11;108790;1267;22525;-72
2024/02/11 01:49:48;;;;;;;7.10;3.40;;;;;;;7.57;92.85;94586.67;108834;1269;22510;-72
2024/02/11 01:52:19;;;;;;;8.90;3.90;;;;;;;7.53;93.13;94587.14;108758;1272;25325;-73
2024/02/11 01:54:50;;;;;;;8.90;4.40;;;;;;;7.50;93.31;94589.09;108831;1266;22544;-72
2024/02/11 01:57:21;;;;;;;10.20;4.40;;;;;;;7.52;93.52;94588.60;108775;1272;22537;-72
2024/02/11 01:59:52;;;;;;;9.10;3.70;;;;;;;7.48;93.49;94585.30;108828;1267;22514;-72
2024/02/11 02:02:27;;;;;;;10.50;3.60;;;;;;;7.40;93.65;94578.33;108766;1267;25414;-72
2024/02/11 02:04:59;;;;;;;9.20;3.70;;;;;;;7.35;93.92;94573.80;108787;1271;22598;-72
2024/02/11 02:07:31;;;;;;;11.90;3.20;;;;;;;7.34;94.36;94575.33;108808;1267;22600;-72
2024/02/11 02:10:04;;;;;;;11.10;3.30;;;;;;;7.40;95.12;94575.14;108773;1272;22518;-72
2024/02/11 02:12:36;;;;;;;6.60;3.40;;;;;;;7.44;95.11;94574.27;108848;1272;22528;-72
2024/02/11 02:15:08;;;;;;;11.20;3.80;;;;;;;7.40;94.91;94576.97;108832;1272;26573;-72
2024/02/11 02:17:40;;;;;;;8.30;3.50;;;;;;;7.33;94.78;94577.92;108820;1272;22529;-73
2024/02/11 02:20:12;;;;;;;8.00;3.40;;;;;;;7.29;95.05;94572.60;108778;1266;22522;-72
2024/02/11 02:22:43;;;;;;;9.10;4.60;;;;;;;7.33;95.50;94571.53;108767;1272;22531;-72
2024/02/11 02:25:14;;;;;;;8.10;3.50;;;;;;;7.39;95.78;94562.98;108821;1272;25249;-73
2024/02/11 02:27:46;;;;;;;11.10;3.60;;;;;;;7.48;96.47;94563.84;108810;1272;22531;-72
2024/02/11 02:30:17;;;;;;;13.70;3.70;;;;;;;7.57;96.67;94564.74;108842;1269;22524;-72
2024/02/11 02:32:48;;;;;;;8.80;3.30;;;;;;;7.63;96.79;94564.77;108832;1272;24458;-72
2024/02/11 02:35:21;;;;;;;11.00;3.80;;;;;;;7.57;96.15;94566.36;108740;1272;22559;-72
2024/02/11 02:37:53;;;;;;;9.40;3.60;;;;;;;7.38;95.95;94555.95;108793;1272;24209;-72
2024/02/11 02:40:26;;;;;;;7.20;3.30;;;;;;;7.36;96.66;94549.96;108832;1269;24215;-72
2024/02/11 02:42:57;;;;;;;8.90;4.00;;;;;;;7.36;96.68;94550.67;108815;1269;22531;-71
2024/02/11 02:45:29;;;;;;;9.20;4.50;;;;;;;7.31;96.89;94544.86;108798;1272;22611;-72
2024/02/11 02:47:59;;;;;;;12.00;3.60;;;;;;;7.37;97.54;94546.23;108799;1269;22518;-72
2024/02/11 02:50:30;;;;;;;7.90;3.60;;;;;;;7.43;97.46;94551.25;108839;1272;22661;-72
2024/02/11 02:53:01;;;;;;;10.40;5.20;;;;;;;7.39;97.29;94555.48;108763;1272;22538;-72
2024/02/11 02:55:35;;;;;;;10.70;5.10;;;;;;;7.34;97.37;94555.81;108814;1272;22544;-72
2024/02/11 02:58:13;;;;;;;11.50;4.60;;;;;;;7.31;97.84;94552.02;108766;1263;22520;-72
2024/02/11 03:00:45;;;;;;;9.60;2.90;;;;;;;7.38;98.33;94556.93;108768;1272;22545;-72
2024/02/11 03:03:17;;;;;;;11.50;5.60;;;;;;;7.44;98.37;94558.46;108810;1272;22532;-72
2024/02/11 03:05:50;;;;;;;12.20;5.60;;;;;;;7.46;98.59;94565.05;108834;1269;25255;-73
2024/02/11 03:08:21;;;;;;;18.40;7.50;;;;;;;7.49;98.93;94562.98;108816;1272;22553;-72
2024/02/11 03:10:52;;;;;;;12.10;5.90;;;;;;;7.55;99.14;94558.26;108776;1266;22525;-72
2024/02/11 03:13:24;;;;;;;9.80;4.60;;;;;;;7.58;99.24;94556.25;108714;1272;23391;-73
2024/02/11 03:15:55;;;;;;;7.50;3.30;;;;;;;7.61;99.21;94553.75;108722;1272;22524;-72
2024/02/11 03:18:26;;;;;;;6.20;3.70;;;;;;;7.58;98.90;94555.16;108666;1269;22525;-72
2024/02/11 03:20:58;;;;;;;9.70;3.60;;;;;;;7.54;99.03;94551.90;108711;1269;23495;-73
2024/02/11 03:23:29;;;;;;;11.60;3.80;;;;;;;7.57;99.55;94544.80;108776;1272;22636;-72
2024/02/11 03:26:00;;;;;;;8.50;3.40;;;;;;;7.62;99.82;94544.13;108790;1272;22524;-72
2024/02/11 03:28:34;;;;;;;7.10;3.00;;;;;;;7.71;100.00;94544.98;108703;1269;22535;-73
2024/02/11 03:31:07;;;;;;;10.20;4.50;;;;;;;7.77;99.96;94540.72;108805;1269;23652;-72
2024/02/11 03:33:38;;;;;;;9.20;4.60;;;;;;;7.73;99.81;94542.08;108690;1272;22518;-72
2024/02/11 03:36:10;;;;;;;8.10;3.60;;;;;;;7.76;99.89;94538.80;108759;1267;22658;-72
2024/02/11 03:38:41;;;;;;;9.40;4.60;;;;;;;7.78;100.00;94539.45;108789;1266;22521;-73
2024/02/11 03:41:13;;;;;;;8.50;3.60;;;;;;;7.78;99.93;94533.83;108762;1272;25303;-72
2024/02/11 03:43:44;;;;;;;7.40;3.70;;;;;;;7.79;99.99;94535.23;108712;1264;26519;-72
2024/02/11 03:46:15;;;;;;;7.70;4.10;;;;;;;7.81;100.00;94537.11;108723;1272;22540;-72
2024/02/11 03:48:46;;;;;;;8.20;4.20;;;;;;;7.74;99.63;94535.75;108753;1267;22536;-73
2024/02/11 03:51:17;;;;;;;7.60;3.10;;;;;;;7.66;99.64;94530.01;108769;1269;22569;-72
2024/02/11 03:53:48;;;;;;;5.30;2.50;;;;;;;7.68;100.00;94526.00;108641;1264;22528;-73
2024/02/11 03:56:22;;;;;;;8.10;4.40;;;;;;;7.72;100.00;94522.25;108740;1267;22525;-73
2024/02/11 03:58:53;;;;;;;4.30;3.00;;;;;;;7.68;100.00;94520.45;108830;1255;22538;-72
2024/02/11 04:01:27;;;;;;;5.90;3.50;;;;;;;7.71;100.00;94520.73;108725;1269;23353;-72
2024/02/11 04:03:58;;;;;;;5.40;2.70;;;;;;;7.69;100.00;94522.73;108759;1272;22536;-72
2024/02/11 04:06:30;;;;;;;4.60;2.70;;;;;;;7.75;100.00;94520.73;108738;1268;22543;-72
2024/02/11 04:09:03;;;;;;;3.60;2.10;;;;;;;7.81;100.00;94514.13;108823;1272;22525;-72
2024/02/11 04:11:34;;;;;;;3.60;2.00;;;;;;;7.86;100.00;94511.16;108769;1269;22559;-72
2024/02/11 04:14:08;;;;;;;4.10;2.10;;;;;;;7.91;100.00;94506.20;108757;1272;24268;-72
2024/02/11 04:16:44;;;;;;;7.00;3.40;;;;;;;7.97;100.00;94505.93;108768;1269;22543;-72
2024/02/11 04:19:15;;;;;;;9.90;4.70;;;;;;;7.94;100.00;94501.52;108670;1269;24232;-72
2024/02/11 04:21:48;;;;;;;5.30;2.90;;;;;;;7.94;100.00;94494.19;108720;1267;23493;-73
2024/02/11 04:24:21;;;;;;;5.80;3.50;;;;;;;7.98;100.00;94493.02;108740;1272;22637;-72
2024/02/11 04:26:53;;;;;;;3.60;1.80;;;;;;;8.03;100.00;94485.30;108670;1268;24382;-73
2024/02/11 04:29:24;;;;;;;5.30;3.00;;;;;;;8.08;100.00;94488.23;108731;1269;25354;-74
2024/02/11 04:31:56;;;;;;;3.60;2.20;;;;;;;8.05;100.00;94483.48;108753;1272;22520;-73
2024/02/11 04:34:28;;;;;;;2.90;1.70;;;;;;;8.00;100.00;94480.27;108835;1272;22772;-73
2024/02/11 04:37:01;;;;;;;4.50;2.10;;;;;;;8.03;100.00;94472.29;108752;1272;26451;-72
2024/02/11 04:39:32;;;;;;;3.20;1.90;;;;;;;8.09;100.00;94474.39;108799;1272;22634;-73
2024/02/11 04:42:06;;;;;;;3.60;2.10;;;;;;;8.12;100.00;94470.89;108761;1269;25296;-73
2024/02/11 04:44:40;;;;;;;2.40;1.50;;;;;;;8.15;100.00;94466.57;108817;1272;24209;-74
2024/02/11 04:47:11;;;;;;;3.30;1.40;;;;;;;8.19;100.00;94462.97;108775;1267;22634;-73
2024/02/11 04:49:42;;;;;;;2.30;1.40;;;;;;;8.19;100.00;94460.11;108821;1269;22528;-73
2024/02/11 04:52:15;;;;;;;3.30;1.30;;;;;;;8.18;100.00;94463.21;108810;1271;22536;-72
2024/02/11 04:54:47;;;;;;;3.50;1.80;;;;;;;8.14;100.00;94461.66;108807;1272;22535;-72
2024/02/11 04:57:18;;;;;;;3.70;1.80;;;;;;;8.14;100.00;94456.54;108857;1262;22674;-72
2024/02/11 04:59:49;;;;;;;4.40;1.80;;;;;;;8.13;100.00;94456.45;108734;1267;25243;-72
2024/02/11 05:02:20;;;;;;;2.20;1.30;;;;;;;8.12;100.00;94450.84;108799;1272;22536;-72
2024/02/11 05:04:51;;;;;;;2.70;1.30;;;;;;;8.11;100.00;94449.20;108644;1273;25288;-73
2024/02/11 05:07:22;;;;;;;3.00;1.10;;;;;;;8.09;100.00;94448.98;108719;1272;22567;-73
2024/02/11 05:09:53;;;;;;;5.00;1.30;;;;;;;8.09;100.00;94447.69;108647;1273;22559;-73
2024/02/11 05:12:24;;;;;;;1.90;1.40;;;;;;;8.07;100.00;94443.00;108667;1272;25352;-73
2024/02/11 05:14:55;;;;;;;4.20;1.40;;;;;;;8.06;100.00;94443.64;108615;1273;22793;-72
2024/02/11 05:17:26;;;;;;;1.60;1.30;;;;;;;8.05;100.00;94442.17;108662;1273;22530;-73
2024/02/11 05:19:57;;;;;;;3.00;1.40;;;;;;;8.02;100.00;94439.26;108677;1273;26608;-73
2024/02/11 05:22:29;;;;;;;1.70;1.00;;;;;;;8.00;100.00;94435.71;108661;1273;22554;-72
2024/02/11 05:25:00;;;;;;;0.80;0.80;;;;;;;7.99;100.00;94433.86;108672;1273;23537;-72
2024/02/11 05:27:32;;;;;;;2.00;1.10;;;;;;;7.94;100.00;94433.97;108639;1268;22574;-73
2024/02/11 05:30:04;;;;;;;2.00;1.50;;;;;;;7.84;100.00;94432.19;108664;1273;22552;-73
2024/02/11 05:32:38;;;;;;;0.70;0.70;;;;;;;7.80;100.00;94430.52;108637;1273;23056;-72
2024/02/11 05:35:11;;;;;;;1.70;0.80;;;;;;;7.80;100.00;94433.75;108682;1274;24675;-73
2024/02/11 05:37:42;;;;;;;2.60;0.80;;;;;;;7.82;100.00;94435.55;108664;1273;22525;-73
2024/02/11 05:40:15;;;;;;;1.50;1.20;;;;;;;7.83;100.00;94436.20;108689;1273;22563;-73
2024/02/11 05:42:46;;;;;;;1.20;1.10;;;;;;;7.85;100.00;94440.50;108661;1272;24416;-73
2024/02/11 05:45:18;;;;;;;1.30;1.00;;;;;;;7.85;100.00;94436.73;108671;1273;22935;-73
2024/02/11 05:47:49;;;;;;;0.60;0.60;;;;;;;7.84;100.00;94432.02;108638;1271;22556;-73
2024/02/11 05:50:21;;;;;;;3.30;2.10;;;;;;;7.82;100.00;94431.50;108672;1273;22659;-73
2024/02/11 05:52:53;;;;;;;3.10;2.30;;;;;;;7.72;100.00;94435.16;108643;1273;22552;-72
2024/02/11 05:55:26;;;;;;;3.40;2.20;;;;;;;7.66;100.00;94436.81;108643;1273;22768;-73
2024/02/11 05:57:57;;;;;;;1.80;1.40;;;;;;;7.62;100.00;94431.84;108631;1266;25480;-73
2024/02/11 06:00:29;;;;;;;5.70;4.40;;;;;;;7.59;100.00;94439.35;108659;1273;22531;-73
2024/02/11 06:03:01;;;;;;;3.90;2.90;;;;;;;7.51;100.00;94444.80;108691;1266;22577;-73
2024/02/11 06:05:32;;;;;;;2.90;2.20;;;;;;;7.39;100.00;94448.05;108831;1272;25293;-73
2024/02/11 06:08:04;;;;;;;1.50;1.00;;;;;;;7.33;100.00;94453.62;108786;1269;23596;-73
2024/02/11 06:10:36;;;;;;;2.60;1.70;;;;;;;7.39;100.00;94460.73;108805;1272;22561;-73
2024/02/11 06:13:12;;;;;;;1.50;1.40;;;;;;;7.43;100.00;94463.74;108800;1272;25394;-73
2024/02/11 06:15:43;;;;;;;1.30;0.90;;;;;;;7.43;100.00;94466.99;108801;1272;24265;-73
2024/02/11 06:18:14;;;;;;;1.40;0.80;;;;;;;7.55;100.00;94473.15;108828;1272;22531;-72
2024/02/11 06:20:45;;;;;;;1.40;1.30;;;;;;;7.68;100.00;94481.98;108783;1266;24175;-73
2024/02/11 06:23:16;;;;;;;2.20;0.70;;;;;;;7.71;100.00;94478.27;108857;1270;22519;-72
2024/02/11 06:25:50;;;;;;;1.60;0.90;;;;;;;7.81;100.00;94475.46;108864;1267;22527;-73
2024/02/11 06:28:21;;;;;;;1.70;0.90;;;;;;;7.97;100.00;94477.98;108781;1272;22525;-73
2024/02/11 06:30:52;;;;;;;2.20;1.40;;;;;;;8.12;99.72;94481.05;108797;1272;22491;-73
2024/02/11 06:33:23;;;;;;;3.10;2.10;;;;;;;8.12;99.02;94479.92;108758;1272;22539;-73
2024/02/11 06:35:54;;;;;;;2.10;1.30;;;;;;;8.04;98.91;94480.98;108714;1272;22531;-73
2024/02/11 06:38:27;;;;;;;1.90;1.10;;;;;;;8.09;98.79;94482.30;108773;1270;22555;-73
2024/02/11 06:40:58;;;;;;;1.20;1.10;;;;;;;8.17;98.56;94482.63;108741;1269;22540;-73
2024/02/11 06:43:32;;;;;;;1.20;0.90;;;;;;;8.22;98.23;94479.54;108682;1269;26423;-73
2024/02/11 06:46:04;;;;;;;1.80;0.70;;;;;;;8.27;97.99;94474.73;108748;1264;22528;-73
2024/02/11 06:48:35;;;;;;;1.60;1.10;;;;;;;8.37;97.99;94472.84;108789;1269;22541;-73
2024/02/11 06:51:06;;;;;;;1.80;1.10;;;;;;;8.45;97.52;94473.84;108693;1267;22523;-73
2024/02/11 06:53:38;;;;;;;1.30;1.20;;;;;;;8.36;97.01;94475.39;108774;1272;22607;-73
2024/02/11 06:56:09;;;;;;;1.70;1.00;;;;;;;8.28;97.10;94465.60;108779;1269;23341;-73
2024/02/11 06:58:41;;;;;;;0.80;0.70;;;;;;;8.29;97.12;94465.63;108812;1269;22535;-73
2024/02/11 07:01:13;;;;;;;1.30;0.90;;;;;;;8.33;96.94;94469.89;108796;1250;22566;-74
2024/02/11 07:03:44;;;;;;;1.80;1.50;;;;;;;8.44;96.80;94472.29;108801;1269;25526;-73
2024/02/11 07:06:16;;;;;;;1.20;0.90;;;;;;;8.51;96.79;94469.94;108771;1272;22532;-73
2024/02/11 07:08:47;;;;;;;2.20;0.80;;;;;;;8.48;96.63;94475.80;108774;1272;22559;-73
2024/02/11 07:11:18;;;;;;;1.40;0.80;;;;;;;8.43;96.54;94479.98;108902;1272;22532;-73
2024/02/11 07:13:51;;;;;;;1.10;1.00;;;;;;;8.40;96.67;94476.59;108792;1270;22992;-74
2024/02/11 07:16:27;;;;;;;1.50;0.90;;;;;;;8.39;96.91;94464.33;108946;1272;22633;-73
2024/02/11 07:18:59;;;;;;;2.30;1.00;;;;;;;8.43;97.25;94464.34;108861;1253;25451;-73
2024/02/11 07:21:29;;;;;;;1.50;1.10;;;;;;;8.51;97.35;94464.88;108769;1267;22601;-73
2024/02/11 07:24:02;;;;;;;1.90;1.00;;;;;;;8.61;97.34;94465.67;108792;1272;22569;-73
2024/02/11 07:26:33;;;;;;;1.10;0.60;;;;;;;8.69;97.37;94464.77;108728;1272;23613;-73
2024/02/11 07:29:09;;;;;;;2.00;1.70;;;;;;;8.72;97.43;94470.61;108796;1272;22558;-73
2024/02/11 07:31:40;;;;;;;2.40;1.30;;;;;;;8.71;97.26;94471.17;108807;1269;22534;-74
2024/02/11 07:34:11;;;;;;;1.70;1.20;;;;;;;8.72;96.96;94468.41;108827;1272;22521;-74
2024/02/11 07:36:42;;;;;;;1.90;1.00;;;;;;;8.62;96.55;94469.33;108843;1272;25116;-73
2024/02/11 07:39:15;;;;;;;1.30;1.10;;;;;;;8.65;96.27;94472.77;108883;1272;25287;-73
2024/02/11 07:41:47;;;;;;;2.20;1.20;;;;;;;8.75;95.96;94468.18;108818;1269;22612;-73
2024/02/11 07:44:18;;;;;;;10.40;4.50;;;;;;;8.84;95.77;94466.98;108855;1266;22522;-73
2024/02/11 07:46:49;;;;;;;9.50;5.00;;;;;;;8.90;95.38;94465.13;108845;1272;22537;-73
2024/02/11 07:49:20;;;;;;;3.30;1.90;;;;;;;8.97;94.95;94460.23;108837;1270;22572;-74
2024/02/11 07:51:55;;;;;;;1.80;1.20;;;;;;;9.00;94.75;94460.15;108869;1269;22552;-74
2024/02/11 07:54:27;;;;;;;2.40;1.10;;;;;;;9.03;94.41;94457.47;108761;1272;22528;-74
2024/02/11 07:56:59;;;;;;;1.50;1.00;;;;;;;9.05;94.15;94451.95;108802;1269;22527;-72
2024/02/11 07:59:30;;;;;;;3.80;2.30;;;;;;;9.10;93.85;94442.21;108808;1272;22531;-74
2024/02/11 08:02:01;;;;;;;20.80;11.20;;;;;;;9.12;93.86;94444.05;108766;1272;23026;-74
2024/02/11 08:04:32;;;;;;;18.70;9.00;;;;;;;9.11;93.94;94447.48;108720;1272;22538;-73
2024/02/11 08:07:03;;;;;;;7.50;3.80;;;;;;;9.07;93.84;94443.79;108732;1272;22520;-73
2024/02/11 08:09:35;;;;;;;11.80;5.50;;;;;;;9.06;93.71;94448.05;108784;1257;23039;-74
2024/02/11 08:12:06;;;;;;;8.20;4.60;;;;;;;9.03;93.64;94444.92;108801;1272;22536;-74
2024/02/11 08:14:38;;;;;;;7.00;4.50;;;;;;;8.97;93.83;94438.65;108791;1263;22551;-73
2024/02/11 08:17:09;;;;;;;7.40;4.20;;;;;;;8.93;93.59;94435.85;108816;1270;22523;-74
2024/02/11 08:19:47;;;;;;;8.70;4.80;;;;;;;8.91;93.62;94435.19;108812;1270;22557;-73
2024/02/11 08:22:18;;;;;;;3.50;2.30;;;;;;;8.76;93.44;94436.13;108828;1271;22548;-73
2024/02/11 08:24:49;;;;;;;4.90;2.70;;;;;;;8.65;93.94;94432.77;108785;1267;22549;-72
2024/02/11 08:27:20;;;;;;;2.90;2.20;;;;;;;8.64;94.36;94434.84;108777;1272;23334;-73
2024/02/11 08:29:52;;;;;;;2.20;1.40;;;;;;;8.59;94.12;94442.41;108745;1267;25287;-73
2024/02/11 08:32:23;;;;;;;3.00;1.60;;;;;;;8.51;94.07;94443.16;108750;1272;22528;-73
2024/02/11 08:34:55;;;;;;;1.90;1.10;;;;;;;8.53;94.06;94438.45;108661;1267;22523;-72
2024/02/11 08:37:27;;;;;;;3.60;0.90;;;;;;;8.60;93.84;94431.80;108816;1267;22527;-72
2024/02/11 08:39:59;;;;;;;2.40;1.20;;;;;;;8.74;93.50;94426.67;108887;1264;22563;-72
2024/02/11 08:42:30;;;;;;;0.90;0.80;;;;;;;8.85;93.23;94424.33;108864;1269;24183;-73
2024/02/11 08:45:01;;;;;;;1.60;1.00;;;;;;;8.95;93.02;94427.91;108885;1272;22568;-73
2024/02/11 08:47:33;;;;;;;3.00;1.10;;;;;;;9.02;92.87;94436.86;108846;1272;22532;-73
2024/02/11 08:50:05;;;;;;;1.60;0.70;;;;;;;9.05;92.59;94437.08;108912;1270;23397;-73
2024/02/11 08:52:36;;;;;;;1.30;1.20;;;;;;;9.15;92.31;94437.67;109009;1264;22528;-73
2024/02/11 08:55:11;;;;;;;1.20;0.90;;;;;;;9.17;91.89;94440.23;108913;1272;22812;-72
2024/02/11 08:57:45;;;;;;;1.80;0.90;;;;;;;9.22;91.14;94432.92;108985;1264;22528;-72
2024/02/11 09:00:22;;;;;;;1.80;1.00;;;;;;;9.25;90.79;94431.90;108946;1272;22523;-72
2024/02/11 09:02:53;;;;;;;1.50;1.20;;;;;;;9.26;90.60;94437.43;108940;1264;22990;-72
2024/02/11 09:05:25;;;;;;;1.70;1.00;;;;;;;9.25;90.65;94436.72;108934;1272;22532;-73
2024/02/11 09:07:57;;;;;;;1.20;1.10;;;;;;;9.25;90.69;94437.03;108894;1272;22529;-72
2024/02/11 09:10:28;;;;;;;1.50;1.00;;;;;;;9.26;90.70;94432.61;108931;1272;23726;-72
2024/02/11 09:13:00;;;;;;;1.60;1.10;;;;;;;9.27;90.77;94426.52;108901;1264;22531;-72
2024/02/11 09:15:34;;;;;;;0.90;0.80;;;;;;;9.26;90.59;94425.58;108896;1272;22521;-72
2024/02/11 09:18:08;;;;;;;1.10;0.80;;;;;;;9.25;90.18;94422.91;108908;1271;22534;-72
2024/02/11 09:20:40;;;;;;;1.10;1.00;;;;;;;9.30;89.96;94426.74;108875;1264;25679;-72
2024/02/11 09:23:12;;;;;;;1.20;0.90;;;;;;;9.35;90.02;94429.85;108848;1267;22539;-72
2024/02/11 09:25:45;;;;;;;1.00;0.80;;;;;;;9.35;89.88;94431.73;108960;1272;22534;-72
2024/02/11 09:28:20;;;;;;;1.70;1.10;;;;;;;9.36;89.58;94425.60;108836;1270;25239;-72
2024/02/11 09:30:51;;;;;;;1.80;1.10;;;;;;;9.39;89.56;94427.13;108930;1269;22644;-72
2024/02/11 09:33:25;;;;;;;1.90;1.40;;;;;;;9.44;89.75;94428.44;108768;1264;22525;-72
2024/02/11 09:35:57;;;;;;;1.60;1.30;;;;;;;9.48;89.79;94424.82;108900;1264;26703;-73
2024/02/11 09:38:28;;;;;;;1.70;0.90;;;;;;;9.51;89.65;94428.86;108864;1264;22682;-72
2024/02/11 09:41:03;;;;;;;2.90;2.10;;;;;;;9.53;89.77;94426.64;108821;1270;22524;-72
2024/02/11 09:43:37;;;;;;;2.60;1.70;;;;;;;9.50;89.63;94428.75;108888;1270;22540;-72
2024/02/11 09:46:10;;;;;;;3.60;2.00;;;;;;;9.51;89.82;94432.41;108863;1267;24131;-72
2024/02/11 09:48:43;;;;;;;2.20;1.30;;;;;;;9.52;89.95;94434.39;108801;1264;25672;-72
2024/02/11 09:51:20;;;;;;;3.10;1.60;;;;;;;9.55;90.10;94436.05;108901;1269;25297;-72
2024/02/11 09:53:54;;;;;;;1.50;1.20;;;;;;;9.58;89.94;94439.88;108892;1254;22547;-72
2024/02/11 09:56:26;;;;;;;2.60;1.40;;;;;;;9.59;89.51;94438.77;108783;1267;22538;-72
2024/02/11 09:58:59;;;;;;;2.00;1.00;;;;;;;9.58;88.87;94437.32;108803;1270;22571;-72
2024/02/11 10:01:33;;;;;;;1.60;1.10;;;;;;;9.64;88.47;94434.67;108764;1270;22630;-72
2024/02/11 10:04:07;;;;;;;2.90;1.10;;;;;;;9.67;88.20;94437.19;108765;1267;24378;-72
2024/02/11 10:06:42;;;;;;;2.80;1.20;;;;;;;9.72;87.72;94438.52;108882;1272;22533;-72
2024/02/11 10:09:13;;;;;;;3.00;1.40;;;;;;;9.76;87.44;94436.74;108804;1272;24346;-72
2024/02/11 10:11:45;;;;;;;2.90;1.70;;;;;;;9.78;87.10;94437.78;108787;1272;22546;-72
2024/02/11 10:14:17;;;;;;;2.00;1.60;;;;;;;9.80;87.00;94432.96;108730;1264;22534;-72
2024/02/11 10:16:48;;;;;;;2.20;1.50;;;;;;;9.79;86.78;94430.20;108657;1266;23016;-72
2024/02/11 10:19:23;;;;;;;2.40;1.20;;;;;;;9.77;86.56;94433.31;108870;1264;24211;-72
2024/02/11 10:21:56;;;;;;;1.80;1.50;;;;;;;9.77;86.47;94429.66;108879;1272;22527;-72
2024/02/11 10:24:30;;;;;;;2.60;1.50;;;;;;;9.78;86.39;94425.85;108733;1264;25946;-72
2024/02/11 10:27:02;;;;;;;3.50;1.70;;;;;;;9.82;86.19;94419.55;108842;1272;22532;-72
2024/02/11 10:29:33;;;;;;;1.90;1.40;;;;;;;9.85;85.83;94413.73;108813;1267;25309;-72
2024/02/11 10:32:09;;;;;;;2.40;1.50;;;;;;;9.86;85.36;94413.13;108713;1269;22521;-73
2024/02/11 10:34:42;;;;;;;3.10;1.50;;;;;;;9.87;85.08;94415.41;108744;1272;23114;-73
2024/02/11 10:37:15;;;;;;;2.00;1.40;;;;;;;9.88;84.94;94410.01;108835;1272;22749;-73
2024/02/11 10:39:46;;;;;;;2.10;1.40;;;;;;;9.88;83.91;94403.98;108737;1270;22524;-73
2024/02/11 10:42:19;;;;;;;2.60;1.60;;;;;;;9.88;83.71;94399.50;108736;1270;24201;-73
2024/02/11 10:44:50;;;;;;;2.20;1.50;;;;;;;9.86;83.50;94393.33;108766;1269;22538;-73
2024/02/11 10:47:21;;;;;;;3.40;1.70;;;;;;;9.88;83.59;94384.39;108719;1267;22562;-73
2024/02/11 10:49:53;;;;;;;3.10;1.50;;;;;;;9.91;83.38;94380.61;108727;1272;26477;-73
2024/02/11 10:52:27;;;;;;;1.40;1.20;;;;;;;9.94;83.56;94384.57;108779;1272;22541;-73
2024/02/11 10:55:04;;;;;;;2.70;1.60;;;;;;;9.97;83.79;94385.18;108721;1272;24356;-73
2024/02/11 10:57:45;;;;;;;2.50;1.50;;;;;;;10.00;84.01;94387.60;108807;1271;22524;-73
2024/02/11 11:00:20;;;;;;;1.60;1.10;;;;;;;10.01;83.73;94387.17;108729;1267;25386;-73
2024/02/11 11:02:53;;;;;;;2.60;1.40;;;;;;;10.01;83.76;94380.20;108672;1272;23291;-73
2024/02/11 11:05:30;;;;;;;1.60;1.20;;;;;;;10.00;83.65;94377.38;108745;1272;22698;-74
2024/02/11 11:08:04;;;;;;;2.30;1.40;;;;;;;9.95;83.30;94379.85;108832;1272;22517;-73
2024/02/11 11:10:39;;;;;;;2.80;1.40;;;;;;;9.95;83.31;94380.14;108843;1272;22677;-72
2024/02/11 11:13:12;;;;;;;2.10;1.10;;;;;;;9.97;83.24;94381.64;108831;1272;22522;-73
2024/02/11 11:15:45;;;;;;;3.30;1.30;;;;;;;9.98;83.16;94379.40;108763;1272;22532;-73
2024/02/11 11:18:16;;;;;;;2.80;1.40;;;;;;;10.01;83.13;94381.95;108683;1272;146451;-73
2024/02/11 11:20:56;;;;;;;1.50;1.30;;;;;;;10.03;83.07;94376.31;108735;1266;22576;-72
2024/02/11 11:23:29;;;;;;;2.30;1.40;;;;;;;10.04;83.04;94373.27;108712;1272;22529;-73
2024/02/11 11:26:10;;;;;;;1.60;1.20;;;;;;;10.06;83.17;94365.23;108741;1272;22580;-72
2024/02/11 11:28:42;;;;;;;3.10;1.20;;;;;;;10.03;83.01;94364.83;108780;1272;22528;-72
2024/02/11 11:31:18;;;;;;;2.60;1.40;;;;;;;10.00;82.84;94365.36;108771;1272;22561;-72
2024/02/11 11:33:50;;;;;;;2.60;1.50;;;;;;;10.00;82.98;94369.58;108780;1267;23121;-72
2024/02/11 11:36:27;;;;;;;2.00;1.40;;;;;;;10.01;83.14;94360.83;108761;1270;22523;-72
2024/02/11 11:39:11;;;;;;;1.80;1.40;;;;;;;10.04;83.16;94362.45;108767;1267;22527;-72
2024/02/11 11:41:44;;;;;;;1.60;1.30;;;;;;;10.06;83.23;94363.02;108779;1270;22561;-72
2024/02/11 11:44:21;;;;;;;2.60;1.20;;;;;;;10.06;83.08;94359.71;108839;1267;22521;-72
2024/02/11 11:46:55;;;;;;;1.90;1.10;;;;;;;10.10;83.15;94362.27;108790;1266;22534;-73
2024/02/11 11:49:27;;;;;;;2.00;1.20;;;;;;;10.14;82.97;94366.92;108835;1265;24004;-72
2024/02/11 11:51:59;;;;;;;2.20;1.20;;;;;;;10.15;82.60;94366.41;108818;1263;27504;-72